Gran Cañón, AZ

10:56 PM MST en Septiembre 29, 2014 (GMT -0700)
KAZGRAND3 | Change Station
CLOSE
Current Station
Estación meteorológica personal
Location: Grand Canyon, AZ
Altura: 6991 ft
Estaciones meteorológicas cercanas

Alt 6991 ft 36.05 °N, 112.12 °W | Updated 1 second ago

Despejado
Despejado
43.4 ° F
Sensación térmica 43 ° F
N
0.0
Viento Variable Viento desde Norte
Gusts 0.0 mph

Hoy
Alta -- | Baja -- ° F
--% Posibilidad de precipitaciones
Ayer
Alta -- | Baja -- ° F
Precip. -- pul
6:22 AM 6:14 PM
Creciente, 33% visible
Presión 30.00 pul
Visibilidad 10.0 Millas
Nubes Despejado
Vientos helados 43 ° F
Punto de rocío 35 ° F
Humedad 72%
Precipitaciones 0.00 pul
Espesor de la nieve 1 in , 0 in , 1 in
UV 0 de una escala de 12
Polen 5.40 de una escala de 12
Calidad del aire No disponible.
Flu Activity No disponible.
METAR KGCN 300454Z AUTO 04003KT 10SM CLR 04/03 A3014 RMK AO2 SLP157 T00440028

More Conditions Fewer Conditions

Presión 30.00 pul
Visibilidad 10.0 Millas
Nubes Despejado
Vientos helados 43 ° F
Punto de rocío 35 ° F
Humedad 72%
Precipitaciones 0.00 pul
Espesor de la nieve 1 in , 0 in , 1 in
UV 0 de una escala de 12
Polen 5.40 de una escala de 12
Calidad del aire No disponible.
Flu Activity No disponible.
METAR KGCN 300454Z AUTO 04003KT 10SM CLR 04/03 A3014 RMK AO2 SLP157 T00440028

More Conditions Fewer Conditions

10-Day Weather Forecast

Almanac

Astronomía

Sep. 29, 2014 Salida Puesta
Hora real 6:22 AM MST 6:14 PM MST
Crepúsculo civil 5:56 AM MST 6:40 PM MST
Crepúsculo náutico 5:26 AM MST 7:10 PM MST
Crepúsculo astronómico 4:56 AM MST 7:40 PM MST
Luna 11:29 AM MST (9/29) 10:00 PM MST (9/29)
Horas de luz 12h 44m
Horas de luz
11h 52m
Tomorrow will be 2m 16s shorter.
Creciente, 33% of the Moon is Illuminated
Sep 30
Creciente
Oct 1
Cuarto creciente
Oct 8
Luna llena
Oct 15
Cuarto menguante
Oct 23
Nueva

Extremos de ayer

Máximos del estado Bajos del estado

Community

WunderPhotos

Upload Photos

1,757,577 ¡fotos cargadas!

Nearby

Grosos de nieve

Estación Profundido Altura
Promontory 1 in 7930 ft
Fry 0 in 7200 ft
Snowslide Canyon 1 in 9730 ft
Coronado Trail 1 in 8400 ft
Happy Jack 0 in 7630 ft

Actividad de terremotos

Ciudad Distance Mag. Tiempo y dato
No hay informes recientes de la actividad sísmica.
Magnitud mínima muestra es 2,5.

Temperaturas de aguas costeras

Lugar Temperatura
Sin partes meteorológicos de las estaciones

Estaciones meteorológicas cercanas